Řízení letového provozu České republiky
Letiste: LKLN Aktualizace: 24.03.2019 21:25:06  UTC
 METAR LKLN 24.03. 21:30 ...
METAR LKLN 242130Z AUTO VRB01KT 8000 BKN024 OVC032 08/05 Q1020=